Time;durP1;ratioP1;P1;durP2;ratioP2;P2;SDS_P1;SDS_P2;PMS_P1;PMS_P2;Temp;Humidity;BMP_temperature;BMP_pressure;BME280_temperature;BME280_humidity;BME280_pressure;Samples;Min_cycle;Max_cycle;Signal;HPM_P1;HPM_P2
2021/08/11 00:02:21;;;;;;;1999.90;999.90;;;19.20;99.90;;;;;;5055263;28;20193;-81
2021/08/11 00:04:46;;;;;;;1999.90;999.90;;;19.10;99.90;;;;;;5037219;28;20418;-80
2021/08/11 00:07:12;;;;;;;1999.90;999.90;;;19.10;99.90;;;;;;5035776;28;20188;-81
2021/08/11 00:09:37;;;;;;;1999.90;999.90;;;19.10;99.90;;;;;;5055108;28;20627;-80
2021/08/11 00:12:04;;;;;;;1999.90;999.90;;;19.00;99.90;;;;;;5038023;28;20168;-80
2021/08/11 00:14:29;;;;;;;1999.90;999.90;;;19.00;99.90;;;;;;5054750;28;20203;-80
2021/08/11 00:16:55;;;;;;;1999.90;999.90;;;19.00;99.90;;;;;;5054904;28;20933;-80
2021/08/11 00:19:21;;;;;;;1999.90;999.90;;;19.00;99.90;;;;;;5037666;28;20583;-81
2021/08/11 00:21:47;;;;;;;1999.90;999.90;;;19.00;99.90;;;;;;5037908;28;20193;-82
2021/08/11 00:24:12;;;;;;;1999.90;999.90;;;18.90;99.90;;;;;;5054825;28;20157;-81
2021/08/11 00:26:38;;;;;;;1999.90;999.90;;;18.90;99.90;;;;;;5054678;28;20182;-80
2021/08/11 00:29:04;;;;;;;1999.90;999.90;;;18.90;99.90;;;;;;5037431;28;20188;-81
2021/08/11 00:31:30;;;;;;;1999.90;999.90;;;18.80;99.90;;;;;;5037182;28;20633;-80
2021/08/11 00:33:59;;;;;;;1999.90;999.90;;;18.80;99.90;;;;;;5055298;28;20169;-80
2021/08/11 00:36:24;;;;;;;1999.90;999.90;;;18.80;99.90;;;;;;5037402;28;20480;-80
2021/08/11 00:38:53;;;;;;;1999.90;999.90;;;18.80;99.90;;;;;;5055565;28;20408;-82
2021/08/11 00:41:18;;;;;;;1999.90;999.90;;;18.80;99.90;;;;;;5055158;28;20572;-80
2021/08/11 00:43:44;;;;;;;1999.90;999.90;;;18.70;99.90;;;;;;5037121;28;20405;-80
2021/08/11 00:46:10;;;;;;;1999.90;999.90;;;18.80;99.90;;;;;;5055309;28;20161;-80
2021/08/11 00:48:37;;;;;;;1999.90;999.90;;;18.70;99.90;;;;;;5054865;28;20754;-80
2021/08/11 00:51:04;;;;;;;1999.90;999.90;;;18.70;99.90;;;;;;5055009;28;20840;-80
2021/08/11 00:53:32;;;;;;;1999.90;999.90;;;18.70;99.90;;;;;;5055662;28;20487;-81
2021/08/11 00:55:59;;;;;;;1999.90;999.90;;;18.70;99.90;;;;;;5055257;28;20972;-81
2021/08/11 00:58:26;;;;;;;1999.90;999.90;;;18.70;99.90;;;;;;5056833;28;20406;-82
2021/08/11 01:00:53;;;;;;;1999.90;999.90;;;18.70;99.90;;;;;;5039016;28;20446;-81
2021/08/11 01:03:21;;;;;;;1999.90;999.90;;;18.70;99.90;;;;;;5056889;28;20929;-81
2021/08/11 01:05:48;;;;;;;1999.90;999.90;;;18.60;99.90;;;;;;5039577;28;20420;-82
2021/08/11 01:08:22;;;;;;;1999.90;999.90;;;18.60;99.90;;;;;;5057170;28;20480;-82
2021/08/11 01:10:58;;;;;;;1999.90;999.90;;;18.60;99.90;;;;;;5057446;28;20781;-82
2021/08/11 01:13:24;;;;;;;1999.90;999.90;;;18.60;99.90;;;;;;5038874;28;20442;-82
2021/08/11 01:15:50;;;;;;;1999.90;999.90;;;18.60;99.90;;;;;;5057045;28;20395;-82
2021/08/11 01:18:18;;;;;;;1999.90;999.90;;;18.60;99.90;;;;;;5056616;28;20510;-82
2021/08/11 01:20:56;;;;;;;1999.90;999.90;;;18.50;99.90;;;;;;5057109;28;20474;-82
2021/08/11 01:23:29;;;;;;;1999.90;999.90;;;18.50;99.90;;;;;;5057099;28;20380;-82
2021/08/11 01:26:08;;;;;;;1999.90;999.90;;;18.50;99.90;;;;;;5057907;28;20391;-83
2021/08/11 01:29:02;;;;;;;1999.90;999.90;;;18.50;99.90;;;;;;5039654;28;20411;-83
2021/08/11 01:31:42;;;;;;;1999.90;999.90;;;18.50;99.90;;;;;;5057719;28;20989;-82
2021/08/11 01:34:29;;;;;;;1999.90;999.90;;;18.40;99.90;;;;;;5056990;28;20406;-82
2021/08/11 01:37:01;;;;;;;1999.90;999.90;;;18.40;99.90;;;;;;5021813;28;20438;-82
2021/08/11 01:39:33;;;;;;;1999.90;999.90;;;18.40;99.90;;;;;;5056727;28;20410;-82
2021/08/11 01:42:12;;;;;;;1999.90;999.90;;;18.40;99.90;;;;;;5056709;28;20830;-82
2021/08/11 01:45:19;;;;;;;1999.90;999.90;;;18.40;99.90;;;;;;5056527;28;20394;-82
2021/08/11 01:47:47;;;;;;;1999.90;999.90;;;18.40;99.90;;;;;;5057026;28;20506;-82
2021/08/11 01:50:15;;;;;;;1999.90;999.90;;;18.30;99.90;;;;;;5057121;28;20981;-83
2021/08/11 01:52:44;;;;;;;1999.90;999.90;;;18.30;99.90;;;;;;5038941;28;20869;-82
2021/08/11 01:55:12;;;;;;;1999.90;999.90;;;18.30;99.90;;;;;;5056736;28;20433;-82
2021/08/11 01:57:42;;;;;;;1999.90;999.90;;;18.30;99.90;;;;;;5056536;28;20771;-82
2021/08/11 02:00:09;;;;;;;1999.90;999.90;;;18.30;99.90;;;;;;5039412;28;20387;-82
2021/08/11 02:02:37;;;;;;;1999.90;999.90;;;18.30;99.90;;;;;;5057165;28;20478;-83
2021/08/11 02:05:08;;;;;;;1999.90;999.90;;;18.20;99.90;;;;;;5057009;28;20399;-82
2021/08/11 02:07:34;;;;;;;1999.90;999.90;;;18.20;99.90;;;;;;5056641;28;20423;-83
2021/08/11 02:10:00;;;;;;;1999.90;999.90;;;18.20;99.90;;;;;;5057095;28;20888;-83
2021/08/11 02:12:26;;;;;;;1999.90;999.90;;;18.20;99.90;;;;;;5039058;28;20461;-83
2021/08/11 02:14:52;;;;;;;1999.90;999.90;;;18.20;99.90;;;;;;5056668;28;20829;-82
2021/08/11 02:17:19;;;;;;;1999.90;999.90;;;18.10;99.90;;;;;;5056576;28;20472;-83
2021/08/11 02:19:46;;;;;;;1999.90;999.90;;;18.10;99.90;;;;;;5038634;28;20925;-83
2021/08/11 02:22:13;;;;;;;1999.90;999.90;;;18.10;99.90;;;;;;5057259;28;20469;-83
2021/08/11 02:24:39;;;;;;;1999.90;999.90;;;18.10;99.90;;;;;;5056579;28;20404;-83
2021/08/11 02:27:27;;;;;;;1999.90;999.90;;;18.10;99.90;;;;;;5127100;22;20482;-83
2021/08/11 02:30:03;;;;;;;1999.90;999.90;;;18.10;99.90;;;;;;5076217;28;20459;-83
2021/08/11 02:32:33;;;;;;;1999.90;999.90;;;18.10;99.90;;;;;;5080474;28;20371;-83
2021/08/11 02:35:33;;;;;;;1999.90;999.90;;;18.10;99.90;;;;;;5080059;28;20386;-82
2021/08/11 02:38:20;;;;;;;1999.90;999.90;;;18.00;99.90;;;;;;5080363;28;20427;-82
2021/08/11 02:41:11;;;;;;;1999.90;999.90;;;18.00;99.90;;;;;;5080652;28;20375;-83
2021/08/11 02:43:55;;;;;;;1999.90;999.90;;;18.00;99.90;;;;;;5080400;28;20424;-82
2021/08/11 02:46:24;;;;;;;1999.90;999.90;;;17.90;99.90;;;;;;5080567;28;20429;-83
2021/08/11 02:48:57;;;;;;;1999.90;999.90;;;17.90;99.90;;;;;;5081040;28;20398;-83
2021/08/11 02:51:26;;;;;;;1999.90;999.90;;;17.90;99.90;;;;;;5080276;28;20395;-83
2021/08/11 02:53:54;;;;;;;1999.90;999.90;;;17.80;99.90;;;;;;5080725;28;20406;-83
2021/08/11 02:56:20;;;;;;;1999.90;999.90;;;17.80;99.90;;;;;;5081156;28;20487;-82
2021/08/11 02:58:46;;;;;;;1999.90;999.90;;;17.80;99.90;;;;;;5076488;28;20406;-82
2021/08/11 03:01:13;;;;;;;1999.90;999.90;;;17.80;99.90;;;;;;5058087;28;20461;-81
2021/08/11 03:03:40;;;;;;;1999.90;999.90;;;17.70;99.90;;;;;;5075983;28;20413;-81
2021/08/11 03:06:05;;;;;;;1999.90;999.90;;;17.70;99.90;;;;;;5075853;28;20901;-81
2021/08/11 03:08:35;;;;;;;1999.90;999.90;;;17.70;99.90;;;;;;5076860;28;20395;-82
2021/08/11 03:11:02;;;;;;;1999.90;999.90;;;17.70;99.90;;;;;;5079518;28;20164;-82
2021/08/11 03:13:28;;;;;;;1999.90;999.90;;;17.60;99.90;;;;;;5079905;28;20418;-82
2021/08/11 03:15:54;;;;;;;1999.90;999.90;;;17.70;99.90;;;;;;5061243;28;20407;-82
2021/08/11 03:18:20;;;;;;;1999.90;999.90;;;17.70;99.90;;;;;;5079449;28;20399;-82
2021/08/11 03:20:46;;;;;;;1999.90;999.90;;;17.70;99.90;;;;;;5061152;28;20172;-81
2021/08/11 03:23:13;;;;;;;1999.90;999.90;;;17.60;99.90;;;;;;5061234;28;20247;-82
2021/08/11 03:25:42;;;;;;;1999.90;999.90;;;17.60;99.90;;;;;;5061388;28;20421;-82
2021/08/11 03:28:10;;;;;;;1999.90;999.90;;;17.50;99.90;;;;;;5061437;28;20464;-82
2021/08/11 03:30:38;;;;;;;1999.90;999.90;;;17.50;99.90;;;;;;5079701;28;20398;-82
2021/08/11 03:33:05;;;;;;;1999.90;999.90;;;17.50;99.90;;;;;;5061519;28;20432;-82
2021/08/11 03:35:31;;;;;;;1999.90;999.90;;;17.50;99.90;;;;;;5078881;28;20409;-83
2021/08/11 03:37:57;;;;;;;1999.90;999.90;;;17.40;99.90;;;;;;5061412;28;20433;-82
2021/08/11 03:40:23;;;;;;;1999.90;999.90;;;17.40;99.90;;;;;;5150493;22;20527;-79
2021/08/11 03:42:48;;;;;;;1999.90;999.90;;;17.40;99.90;;;;;;5055623;28;21033;-79
2021/08/11 03:45:14;;;;;;;1999.90;999.90;;;17.30;99.90;;;;;;5055926;28;20505;-79
2021/08/11 03:47:43;;;;;;;1999.90;999.90;;;17.30;99.90;;;;;;5056094;28;20180;-79
2021/08/11 03:50:13;;;;;;;1999.90;999.90;;;17.30;99.90;;;;;;5055780;28;20165;-79
2021/08/11 03:52:38;;;;;;;1999.90;999.90;;;17.30;99.90;;;;;;5055848;28;20408;-79
2021/08/11 03:55:05;;;;;;;1999.90;999.90;;;17.30;99.90;;;;;;5055891;28;20395;-79
2021/08/11 03:57:31;;;;;;;1999.90;999.90;;;17.30;99.90;;;;;;5038333;28;20242;-79
2021/08/11 03:59:57;;;;;;;1999.90;999.90;;;17.30;99.90;;;;;;5055645;28;20403;-79
2021/08/11 04:02:22;;;;;;;1999.90;999.90;;;17.20;99.90;;;;;;5037882;28;20740;-79
2021/08/11 04:04:48;;;;;;;1999.90;999.90;;;17.20;99.90;;;;;;5055299;28;20184;-79
2021/08/11 04:07:14;;;;;;;1999.90;999.90;;;17.20;99.90;;;;;;5055756;28;20618;-79
2021/08/11 04:09:39;;;;;;;1999.90;999.90;;;17.20;99.90;;;;;;5055553;28;20174;-79
2021/08/11 04:12:05;;;;;;;1999.90;999.90;;;17.20;99.90;;;;;;5055604;28;20252;-79
2021/08/11 04:14:31;;;;;;;1999.90;999.90;;;17.20;99.90;;;;;;5037481;28;20717;-79
2021/08/11 04:16:56;;;;;;;1999.90;999.90;;;17.20;99.90;;;;;;5055059;28;20517;-79
2021/08/11 04:19:22;;;;;;;1999.90;999.90;;;17.20;99.90;;;;;;5037254;28;20267;-79
2021/08/11 04:21:48;;;;;;;1999.90;999.90;;;17.20;99.90;;;;;;5055068;28;20188;-79
2021/08/11 04:24:13;;;;;;;1999.90;999.90;;;17.10;99.90;;;;;;5037108;28;20773;-79
2021/08/11 04:26:39;;;;;;;1999.90;999.90;;;17.20;99.90;;;;;;5055242;28;20298;-79
2021/08/11 04:29:05;;;;;;;1999.90;999.90;;;17.20;99.90;;;;;;5055036;28;20159;-79
2021/08/11 04:31:30;;;;;;;1999.90;999.90;;;17.20;99.90;;;;;;5055171;28;20196;-79
2021/08/11 04:33:56;;;;;;;1999.90;999.90;;;17.10;99.90;;;;;;5055047;28;20215;-79
2021/08/11 04:36:22;;;;;;;1999.90;999.90;;;17.10;99.90;;;;;;5054883;28;20275;-79
2021/08/11 04:38:47;;;;;;;1999.90;999.90;;;17.10;99.90;;;;;;5054914;28;20171;-79
2021/08/11 04:41:14;;;;;;;1999.90;999.90;;;17.10;99.90;;;;;;5054556;28;20235;-79
2021/08/11 04:43:40;;;;;;;1999.90;999.90;;;17.10;99.90;;;;;;5054829;28;20675;-79
2021/08/11 04:46:06;;;;;;;1999.90;999.90;;;17.10;99.90;;;;;;5054590;28;20400;-79
2021/08/11 04:48:32;;;;;;;1999.90;999.90;;;17.10;99.90;;;;;;5054964;28;20403;-79
2021/08/11 04:50:58;;;;;;;1999.90;999.90;;;17.10;99.90;;;;;;5054461;28;20165;-79
2021/08/11 04:53:24;;;;;;;1999.90;999.90;;;17.10;99.90;;;;;;5054086;28;20498;-79
2021/08/11 04:55:50;;;;;;;1999.90;999.90;;;17.10;99.90;;;;;;5054508;28;20536;-79
2021/08/11 04:58:16;;;;;;;1999.90;999.90;;;17.10;99.90;;;;;;5036528;28;20189;-79
2021/08/11 05:00:42;;;;;;;1999.90;999.90;;;17.10;99.90;;;;;;5054120;28;20407;-79
2021/08/11 05:03:07;;;;;;;1999.90;999.90;;;17.10;99.90;;;;;;5054126;28;20403;-79
2021/08/11 05:05:33;;;;;;;1999.90;999.90;;;17.10;99.90;;;;;;5054283;28;20161;-79
2021/08/11 05:07:59;;;;;;;1999.90;999.90;;;17.10;99.90;;;;;;5054150;28;20256;-79
2021/08/11 05:10:25;;;;;;;1999.90;999.90;;;17.20;99.90;;;;;;5054434;28;20576;-79
2021/08/11 05:12:50;;;;;;;1999.90;999.90;;;17.10;99.90;;;;;;5054187;28;20167;-79
2021/08/11 05:15:17;;;;;;;1999.90;999.90;;;17.20;99.90;;;;;;5036748;28;20473;-79
2021/08/11 05:17:42;;;;;;;1999.90;999.90;;;17.20;99.90;;;;;;5036867;28;20193;-79
2021/08/11 05:20:09;;;;;;;1999.90;999.90;;;17.20;99.90;;;;;;5037286;28;20480;-79
2021/08/11 05:22:34;;;;;;;1999.90;999.90;;;17.30;99.90;;;;;;5055344;28;20188;-79
2021/08/11 05:25:00;;;;;;;1999.90;999.90;;;17.30;99.90;;;;;;5055603;28;20449;-79
2021/08/11 05:27:27;;;;;;;1999.90;999.90;;;17.30;99.90;;;;;;5054872;28;20188;-79
2021/08/11 05:29:53;;;;;;;1999.90;999.90;;;17.30;99.90;;;;;;5037080;28;20191;-79
2021/08/11 05:32:18;;;;;;;1999.90;999.90;;;17.30;99.90;;;;;;5055117;28;20399;-79
2021/08/11 05:34:44;;;;;;;1999.90;999.90;;;17.40;99.90;;;;;;5055335;28;20160;-79
2021/08/11 05:37:11;;;;;;;1999.90;999.90;;;17.50;99.90;;;;;;5037174;28;20632;-79
2021/08/11 05:39:37;;;;;;;1999.90;999.90;;;17.40;99.90;;;;;;5055023;28;20403;-79
2021/08/11 05:42:03;;;;;;;1999.90;999.90;;;17.40;99.90;;;;;;5055217;28;20466;-79
2021/08/11 05:44:29;;;;;;;1999.90;999.90;;;17.40;99.90;;;;;;5055632;28;20391;-78
2021/08/11 05:46:55;;;;;;;1999.90;999.90;;;17.40;99.90;;;;;;5054693;28;20422;-78
2021/08/11 05:49:20;;;;;;;1999.90;999.90;;;17.50;99.90;;;;;;5054958;28;20164;-78
2021/08/11 05:51:46;;;;;;;1999.90;999.90;;;17.50;99.90;;;;;;5055308;28;20180;-78
2021/08/11 05:54:12;;;;;;;1999.90;999.90;;;17.50;99.90;;;;;;5055133;28;20639;-78
2021/08/11 05:56:37;;;;;;;1999.90;999.90;;;17.60;99.90;;;;;;5054802;28;20671;-78
2021/08/11 05:59:03;;;;;;;1999.90;999.90;;;17.70;99.90;;;;;;5037270;28;20252;-78
2021/08/11 06:01:30;;;;;;;1999.90;999.90;;;17.70;99.90;;;;;;5055525;28;20195;-79
2021/08/11 06:03:57;;;;;;;1999.90;999.90;;;17.70;99.90;;;;;;5040413;28;20173;-79
2021/08/11 06:06:27;;;;;;;1999.90;999.90;;;17.70;99.90;;;;;;5060554;28;20423;-79
2021/08/11 06:08:54;;;;;;;1999.90;999.90;;;17.70;99.90;;;;;;5042444;28;20411;-78
2021/08/11 06:11:20;;;;;;;1999.90;999.90;;;17.70;99.90;;;;;;5060636;28;20411;-78
2021/08/11 06:13:45;;;;;;;1999.90;999.90;;;17.80;99.90;;;;;;5061199;28;20928;-78
2021/08/11 06:16:11;;;;;;;1999.90;999.90;;;17.80;99.90;;;;;;5060499;28;20766;-79
2021/08/11 06:18:37;;;;;;;1999.90;999.90;;;17.70;99.90;;;;;;5059754;28;20635;-78
2021/08/11 06:21:03;;;;;;;1999.90;999.90;;;17.80;99.90;;;;;;5060504;28;20504;-78
2021/08/11 06:23:29;;;;;;;1999.90;999.90;;;17.80;99.90;;;;;;5060674;28;20172;-78
2021/08/11 06:25:55;;;;;;;1999.90;999.90;;;17.70;99.90;;;;;;5059687;28;20399;-78
2021/08/11 06:28:21;;;;;;;1999.90;999.90;;;17.80;99.90;;;;;;5058467;28;20427;-78
2021/08/11 06:30:47;;;;;;;1999.90;999.90;;;17.90;99.90;;;;;;5040013;28;20407;-78
2021/08/11 06:33:12;;;;;;;1999.90;999.90;;;18.00;99.90;;;;;;5057788;28;20222;-78
2021/08/11 06:35:38;;;;;;;1999.90;999.90;;;18.00;99.90;;;;;;5058619;28;20176;-78
2021/08/11 06:38:04;;;;;;;1999.90;999.90;;;18.00;99.90;;;;;;5058390;28;20725;-78
2021/08/11 06:40:34;;;;;;;1999.90;999.90;;;18.00;99.90;;;;;;5058221;28;20280;-78
2021/08/11 06:43:00;;;;;;;1999.90;999.90;;;18.10;99.90;;;;;;5057574;28;20534;-78
2021/08/11 06:45:25;;;;;;;1999.90;999.90;;;18.00;99.90;;;;;;5058148;28;20430;-78
2021/08/11 06:47:51;;;;;;;1999.90;999.90;;;18.00;99.90;;;;;;5040446;28;20195;-78
2021/08/11 06:50:17;;;;;;;1999.90;999.90;;;18.10;99.90;;;;;;5059508;28;20161;-78
2021/08/11 06:52:43;;;;;;;1999.90;999.90;;;18.10;99.90;;;;;;5041921;28;20169;-78
2021/08/11 06:55:11;;;;;;;1999.90;999.90;;;18.20;99.90;;;;;;5058608;28;20918;-78
2021/08/11 06:57:39;;;;;;;1999.90;999.90;;;18.20;99.90;;;;;;5057400;28;20567;-78
2021/08/11 07:00:07;;;;;;;1999.90;999.90;;;18.20;99.90;;;;;;5039326;28;20403;-78
2021/08/11 07:02:33;;;;;;;1999.90;999.90;;;18.20;99.90;;;;;;5057313;28;20457;-78
2021/08/11 07:04:58;;;;;;;1999.90;999.90;;;18.10;99.90;;;;;;5057980;28;20486;-78
2021/08/11 07:07:24;;;;;;;1999.90;999.90;;;18.20;99.90;;;;;;5057331;28;20722;-78
2021/08/11 07:09:50;;;;;;;1999.90;999.90;;;18.20;99.90;;;;;;5057093;28;20189;-78
2021/08/11 07:12:15;;;;;;;1999.90;999.90;;;18.30;99.90;;;;;;5039369;28;20425;-78
2021/08/11 07:14:41;;;;;;;1999.90;999.90;;;18.30;99.90;;;;;;5057388;28;20206;-78
2021/08/11 07:17:07;;;;;;;1999.90;999.90;;;18.40;99.90;;;;;;5038496;28;20196;-78
2021/08/11 07:19:32;;;;;;;1999.90;999.90;;;18.60;99.90;;;;;;5056949;28;20169;-78
2021/08/11 07:21:58;;;;;;;1999.90;999.90;;;18.60;99.90;;;;;;5057134;28;20686;-78
2021/08/11 07:24:24;;;;;;;1999.90;999.90;;;18.80;99.90;;;;;;5039318;28;20218;-78
2021/08/11 07:26:50;;;;;;;1999.90;999.90;;;18.70;99.90;;;;;;5056523;28;20527;-78
2021/08/11 07:29:15;;;;;;;1999.90;999.90;;;18.80;99.90;;;;;;5057284;28;20505;-78
2021/08/11 07:31:41;;;;;;;1999.90;999.90;;;18.90;99.90;;;;;;5056913;28;20209;-78
2021/08/11 07:34:06;;;;;;;1999.90;999.90;;;18.90;99.90;;;;;;5056687;28;20184;-77
2021/08/11 07:36:32;;;;;;;1999.90;999.90;;;19.00;99.90;;;;;;5055096;28;20246;-76
2021/08/11 07:38:58;;;;;;;1999.90;999.90;;;19.10;99.90;;;;;;5055037;28;20256;-76
2021/08/11 07:41:27;;;;;;;1999.90;999.90;;;19.10;99.90;;;;;;5055039;28;20756;-76
2021/08/11 07:43:52;;;;;;;1999.90;999.90;;;19.20;99.90;;;;;;5054920;28;20399;-76
2021/08/11 07:46:18;;;;;;;1999.90;999.90;;;19.30;99.90;;;;;;5054962;28;20423;-76
2021/08/11 07:48:44;;;;;;;1999.90;999.90;;;19.20;99.90;;;;;;5055702;28;20188;-76
2021/08/11 07:51:12;;;;;;;1999.90;999.90;;;19.20;99.90;;;;;;5054865;28;20170;-76
2021/08/11 07:53:38;;;;;;;1999.90;999.90;;;19.30;99.90;;;;;;5055015;28;20164;-76
2021/08/11 07:56:04;;;;;;;1999.90;999.90;;;19.30;99.90;;;;;;5054680;28;20391;-75
2021/08/11 07:58:29;;;;;;;1999.90;999.90;;;19.40;99.90;;;;;;5054970;28;20215;-75
2021/08/11 08:00:55;;;;;;;1999.90;999.90;;;19.40;99.90;;;;;;5036635;28;20257;-75
2021/08/11 08:03:21;;;;;;;1999.90;999.90;;;19.40;99.90;;;;;;5054654;28;20167;-75
2021/08/11 08:05:46;;;;;;;1999.90;999.90;;;19.50;99.90;;;;;;5055834;28;20164;-77
2021/08/11 08:08:12;;;;;;;1999.90;999.90;;;19.40;99.90;;;;;;5055523;28;20176;-77
2021/08/11 08:10:38;;;;;;;1999.90;999.90;;;19.50;99.90;;;;;;5055590;28;20298;-77
2021/08/11 08:13:03;;;;;;;1999.90;999.90;;;19.60;99.90;;;;;;5055487;28;20192;-77
2021/08/11 08:15:29;;;;;;;1999.90;999.90;;;19.40;99.90;;;;;;5055716;28;20172;-77
2021/08/11 08:17:55;;;;;;;1999.90;999.90;;;19.40;99.90;;;;;;5055464;28;20184;-77
2021/08/11 08:20:21;;;;;;;1999.90;999.90;;;19.50;99.90;;;;;;5055547;28;20758;-77
2021/08/11 08:22:48;;;;;;;1999.90;999.90;;;19.60;99.90;;;;;;5055317;28;20542;-77
2021/08/11 08:25:20;;;;;;;1999.90;999.90;;;19.70;99.90;;;;;;5055403;28;20167;-77
2021/08/11 08:27:51;;;;;;;1999.90;999.90;;;19.80;99.90;;;;;;5036650;28;20431;-77
2021/08/11 08:30:17;;;;;;;1999.90;999.90;;;19.70;99.90;;;;;;5055302;28;20414;-77
2021/08/11 08:32:44;;;;;;;1999.90;999.90;;;19.70;99.90;;;;;;5055133;28;21001;-77
2021/08/11 08:35:11;;;;;;;1999.90;999.90;;;19.80;99.90;;;;;;5054820;28;20407;-77
2021/08/11 08:37:37;;;;;;;1999.90;999.90;;;19.80;99.90;;;;;;5054786;28;20425;-77
2021/08/11 08:40:12;;;;;;;1999.90;999.90;;;20.00;99.90;;;;;;5054897;28;20801;-77
2021/08/11 08:42:38;;;;;;;1999.90;999.90;;;20.10;99.90;;;;;;5054584;28;20435;-77
2021/08/11 08:45:04;;;;;;;1999.90;999.90;;;20.20;99.90;;;;;;5036843;28;20426;-77
2021/08/11 08:47:32;;;;;;;1999.90;999.90;;;20.20;99.90;;;;;;5054246;28;20424;-77
2021/08/11 08:50:02;;;;;;;1999.90;999.90;;;20.30;99.90;;;;;;5036378;28;20490;-77
2021/08/11 08:52:29;;;;;;;1999.90;999.90;;;20.30;99.90;;;;;;5054122;28;20376;-77
2021/08/11 08:54:58;;;;;;;1999.90;999.90;;;20.40;99.90;;;;;;5053922;28;20395;-77
2021/08/11 08:57:24;;;;;;;1999.90;999.90;;;20.40;99.90;;;;;;5035866;28;20431;-77
2021/08/11 08:59:50;;;;;;;1999.90;999.90;;;20.20;99.90;;;;;;5036030;28;20616;-77
2021/08/11 09:02:16;;;;;;;1999.90;999.90;;;20.00;99.90;;;;;;5053622;28;20446;-77
2021/08/11 09:04:42;;;;;;;1999.90;999.90;;;20.10;99.90;;;;;;5053653;28;20196;-77
2021/08/11 09:07:13;;;;;;;1999.90;999.90;;;20.20;99.90;;;;;;5035720;28;20575;-77
2021/08/11 09:09:39;;;;;;;1999.90;999.90;;;20.30;99.90;;;;;;5054033;28;20468;-77
2021/08/11 09:12:14;;;;;;;1999.90;999.90;;;20.40;99.90;;;;;;5053985;28;20404;-77
2021/08/11 09:14:45;;;;;;;1999.90;999.90;;;20.50;99.90;;;;;;5054509;28;20465;-77
2021/08/11 09:17:31;;;;;;;1999.90;999.90;;;20.60;99.90;;;;;;5053706;28;20426;-77
2021/08/11 09:19:57;;;;;;;1999.90;999.90;;;20.60;99.90;;;;;;5053566;28;20407;-77
2021/08/11 09:22:23;;;;;;;1999.90;999.90;;;20.80;99.90;;;;;;5053287;28;20442;-77
2021/08/11 09:25:07;;;;;;;1999.90;999.90;;;20.80;99.90;;;;;;5053687;28;20482;-77
2021/08/11 09:27:40;;;;;;;1999.90;999.90;;;20.80;99.90;;;;;;5053209;28;20472;-75
2021/08/11 09:30:11;;;;;;;1999.90;999.90;;;21.10;99.90;;;;;;5035593;28;20388;-75
2021/08/11 09:32:52;;;;;;;1999.90;999.90;;;21.30;99.90;;;;;;5053100;28;20406;-75
2021/08/11 09:35:39;;;;;;;1999.90;999.90;;;21.50;99.90;;;;;;5053322;28;20407;-75
2021/08/11 09:38:12;;;;;;;1999.90;999.90;;;21.60;99.90;;;;;;5053055;28;20492;-75
2021/08/11 09:41:16;;;;;;;1999.90;999.90;;;21.70;99.90;;;;;;5132877;22;21284;-80
2021/08/11 09:44:19;;;;;;;1999.90;999.90;;;22.00;99.90;;;;;;5047887;28;20464;-81
2021/08/11 09:46:56;;;;;;;1999.90;999.90;;;22.00;99.90;;;;;;5069288;28;20453;-81
2021/08/11 09:49:30;;;;;;;1999.90;999.90;;;21.80;99.90;;;;;;5068259;28;20430;-81
2021/08/11 09:52:02;;;;;;;1999.90;999.90;;;21.90;99.90;;;;;;5068431;28;20395;-81
2021/08/11 09:54:30;;;;;;;1999.90;999.90;;;21.90;99.90;;;;;;5069971;28;20415;-81
2021/08/11 09:57:02;;;;;;;1999.90;999.90;;;22.00;99.90;;;;;;5050492;28;20500;-80
2021/08/11 10:00:13;;;;;;;1999.90;999.90;;;22.10;99.90;;;;;;5046776;28;20427;-80
2021/08/11 10:03:08;;;;;;;1999.90;999.90;;;22.40;99.90;;;;;;5068118;28;20439;-80
2021/08/11 10:05:35;;;;;;;1999.90;999.90;;;22.70;99.90;;;;;;5067958;28;20386;-80
2021/08/11 10:08:02;;;;;;;1999.90;999.90;;;23.00;99.90;;;;;;5049424;28;20977;-82
2021/08/11 10:10:28;;;;;;;1999.90;999.90;;;23.20;99.90;;;;;;5049390;28;20416;-82
2021/08/11 10:12:54;;;;;;;1999.90;999.90;;;23.20;99.90;;;;;;5066781;28;20408;-81
2021/08/11 10:15:20;;;;;;;1999.90;999.90;;;23.30;99.90;;;;;;5048319;28;20414;-81
2021/08/11 10:17:49;;;;;;;1999.90;999.90;;;23.30;99.90;;;;;;5049145;28;20749;-81
2021/08/11 10:20:19;;;;;;;1999.90;999.90;;;23.20;99.90;;;;;;5067120;28;20435;-81
2021/08/11 10:22:45;;;;;;;1999.90;999.90;;;22.90;99.90;;;;;;5067605;28;20455;-82
2021/08/11 10:25:11;;;;;;;1999.90;999.90;;;22.70;99.90;;;;;;5067135;28;20728;-81
2021/08/11 10:27:42;;;;;;;1999.90;999.90;;;22.90;99.90;;;;;;5067871;28;20426;-81
2021/08/11 10:30:09;;;;;;;1999.90;999.90;;;23.10;99.90;;;;;;5066570;28;20395;-81
2021/08/11 10:32:37;;;;;;;1999.90;999.90;;;23.50;99.90;;;;;;5067716;28;20400;-81
2021/08/11 10:35:04;;;;;;;1999.90;999.90;;;23.80;99.90;;;;;;5048027;28;20942;-82
2021/08/11 10:37:30;;;;;;;1999.90;999.90;;;24.00;99.90;;;;;;5066375;28;20430;-82
2021/08/11 10:39:56;;;;;;;1999.90;999.90;;;24.00;99.90;;;;;;5067417;28;20403;-81
2021/08/11 10:42:22;;;;;;;1999.90;999.90;;;23.90;99.90;;;;;;5044785;28;20493;-81
2021/08/11 10:44:59;;;;;;;1999.90;999.90;;;23.80;99.90;;;;;;5061959;28;20173;-81
2021/08/11 10:47:32;;;;;;;1999.90;999.90;;;23.70;99.90;;;;;;5063868;28;20184;-81
2021/08/11 10:50:00;;;;;;;1999.90;999.90;;;23.80;99.90;;;;;;5061958;28;20399;-81
2021/08/11 10:52:26;;;;;;;1999.90;999.90;;;24.10;99.90;;;;;;5048833;28;20411;-81
2021/08/11 10:54:55;;;;;;;1999.90;999.90;;;24.30;99.90;;;;;;5068997;28;20406;-81
2021/08/11 10:57:47;;;;;;;1999.90;999.90;;;24.60;99.90;;;;;;5051478;28;20435;-81
2021/08/11 11:00:22;;;;;;;1999.90;999.90;;;24.80;99.90;;;;;;5064341;28;20421;-81
2021/08/11 11:02:49;;;;;;;1999.90;999.90;;;24.90;99.90;;;;;;5050059;28;20461;-80
2021/08/11 11:05:22;;;;;;;1999.90;999.90;;;24.80;99.90;;;;;;5050096;28;20408;-81
2021/08/11 11:08:10;;;;;;;1999.90;999.90;;;24.70;99.90;;;;;;5051581;28;20451;-82
2021/08/11 11:10:37;;;;;;;1999.90;999.90;;;24.80;99.90;;;;;;5070594;28;20405;-81
2021/08/11 11:13:32;;;;;;;1999.90;999.90;;;25.30;99.90;;;;;;5068519;28;20409;-81
2021/08/11 11:16:03;;;;;;;1999.90;999.90;;;25.70;99.90;;;;;;5050538;28;20415;-81
2021/08/11 11:18:29;;;;;;;1999.90;999.90;;;25.90;99.90;;;;;;5069711;28;20906;-81
2021/08/11 11:20:58;;;;;;;1999.90;999.90;;;26.10;99.00;;;;;;5069318;28;20409;-81
2021/08/11 11:23:43;;;;;;;1999.90;999.90;;;26.10;92.80;;;;;;5068976;28;20171;-81
2021/08/11 11:26:10;;;;;;;1999.90;999.90;;;26.00;93.00;;;;;;5068963;28;20401;-81
2021/08/11 11:28:57;;;;;;;1999.90;999.90;;;25.70;91.60;;;;;;5052320;28;20405;-81
2021/08/11 11:31:42;;;;;;;1999.90;999.90;;;25.60;96.20;;;;;;5069212;28;20394;-81
2021/08/11 11:34:36;;;;;;;1999.90;999.90;;;25.50;96.80;;;;;;5068690;28;20754;-80
2021/08/11 11:37:02;;;;;;;1999.90;999.90;;;25.40;98.20;;;;;;5050988;28;20434;-80
2021/08/11 11:39:29;;;;;;;1999.90;999.90;;;25.40;99.90;;;;;;5068908;28;20440;-80
2021/08/11 11:42:23;;;;;;;1999.90;999.90;;;25.20;99.90;;;;;;5068136;28;20462;-80
2021/08/11 11:44:57;;;;;;;1999.90;999.90;;;25.00;99.90;;;;;;5069040;28;20388;-81
2021/08/11 11:47:42;;;;;;;1999.90;999.90;;;24.70;99.90;;;;;;5050393;28;20432;-82
2021/08/11 11:50:24;;;;;;;1999.90;999.90;;;24.50;99.90;;;;;;5051603;28;20410;-81
2021/08/11 11:53:00;;;;;;;1999.90;999.90;;;24.40;99.90;;;;;;5069116;28;20400;-81
2021/08/11 11:55:39;;;;;;;1999.90;999.90;;;24.40;99.90;;;;;;5051887;28;20420;-81
2021/08/11 11:58:25;;;;;;;1999.90;999.90;;;24.50;99.90;;;;;;5068698;28;20431;-80
2021/08/11 12:01:04;;;;;;;1999.90;999.90;;;24.90;99.90;;;;;;5069661;28;20426;-80
2021/08/11 12:03:36;;;;;;;1999.90;999.90;;;25.30;99.90;;;;;;5051674;28;20412;-80
2021/08/11 12:06:02;;;;;;;1999.90;999.90;;;25.50;99.90;;;;;;5051480;28;20409;-80
2021/08/11 12:08:28;;;;;;;1999.90;999.90;;;25.40;96.00;;;;;;5070067;28;20422;-80
2021/08/11 12:11:14;;;;;;;1999.90;999.90;;;25.30;99.60;;;;;;5069469;28;20422;-81